Wayana — PE5639 — position and weather

sailwx.info

Track history (hours):
 
Tides and Currents Weather Stations Pressure Air Temp Water Temp Dewpoint Dewpoint Depression Visibility Wind Speed Wind Dir Waves Ship Positions

Wayana

Last reported at 2015-Aug-12 15:32 UTC. Time now 2015-Aug-28 07:32 UTC.
Position N 52°55' E 005°03'.
Warning: this ship's position is 15 days out of date.

Length 14 m.

Type: Sailing vessel. MMSI: 244020670.

Date/timePositionNaut miles runAvg speedWind from/ knotsBaromVisibWave heightAir tempDewpointWater temp
2015-Aug-12 15:32N 52°55' E 005°03'0 0.0
2015-Aug-12 14:32N 52°55' E 005°03'0 0.0
2015-Aug-12 13:32N 52°55' E 005°03'0 0.0
2015-Aug-12 12:32N 52°55' E 005°03'0 0.0
2015-Aug-11 19:33N 52°55' E 005°03'0 0.0
2015-Aug-11 15:29N 52°55' E 005°03'0 0.0
2015-Aug-11 14:32N 52°55' E 005°03'0 0.0
2015-Aug-11 13:32N 52°55' E 005°03'0 0.0
2015-Aug-11 12:29N 52°55' E 005°03'0 0.0
2015-Aug-11 11:32N 52°55' E 005°03'0 0.0
2015-Aug-11 10:32N 52°55' E 005°03'0 0.0
2015-Aug-11 09:32N 52°55' E 005°03'0 0.0
2015-Aug-11 08:32N 52°55' E 005°03'0 0.0
2015-Aug-11 07:32N 52°55' E 005°03'0 0.0
2015-Aug-11 06:32N 52°55' E 005°03'0 0.0
2015-Aug-11 05:32N 52°55' E 005°03'0 0.0
2015-Aug-11 04:32N 52°55' E 005°03'0 0.0
2015-Aug-11 03:32N 52°55' E 005°03'0 0.0
2015-Aug-11 02:32N 52°55' E 005°03'0 0.0
2015-Aug-11 01:32N 52°55' E 005°03'0 0.0
2015-Aug-11 00:29N 52°55' E 005°03'0 0.0
2015-Aug-10 23:32N 52°55' E 005°03'0 0.0
2015-Aug-10 22:32N 52°55' E 005°03'0 0.0
2015-Aug-10 21:29N 52°55' E 005°03'0 0.0
2015-Aug-10 20:32N 52°55' E 005°03'0 0.0
2015-Aug-10 19:29N 52°55' E 005°03'0 0.0
2015-Aug-10 18:32N 52°55' E 005°03'0 0.0
2015-Aug-10 17:32N 52°55' E 005°03'1 0.8
2015-Aug-10 16:33N 52°56' E 005°02'5 4.8
2015-Aug-10 15:33N 53°00' E 005°06'6 4.3
2015-Aug-10 14:17N 53°05' E 005°10'3 3.5
2015-Aug-10 13:26N 53°08' E 005°10'5 5.7
2015-Aug-10 12:33N 53°13' E 005°09'1 1.0
2015-Aug-10 11:33N 53°14' E 005°09'0 0.0
2015-Aug-10 10:33N 53°14' E 005°09'0 0.0
2015-Aug-10 09:33N 53°14' E 005°09'0 0.0
2015-Aug-10 08:30N 53°14' E 005°09'0 0.0
2015-Aug-10 07:33N 53°14' E 005°09'0 0.0
2015-Aug-10 06:27N 53°14' E 005°09'0 0.0
2015-Aug-10 05:33N 53°14' E 005°09'0 0.0
2015-Aug-10 04:33N 53°14' E 005°09'0 0.0
2015-Aug-10 03:33N 53°14' E 005°09'0 0.0
2015-Aug-10 02:33N 53°14' E 005°09'0 0.0
2015-Aug-10 01:33N 53°14' E 005°09'0 0.0
2015-Aug-10 00:33N 53°14' E 005°09'0 0.0
2015-Aug-09 23:33N 53°14' E 005°09'0 0.0
2015-Aug-09 22:33N 53°14' E 005°09'0 0.0
2015-Aug-09 21:33N 53°14' E 005°09'0 0.0
2015-Aug-09 20:33N 53°14' E 005°09'0 0.0
2015-Aug-09 19:33N 53°14' E 005°09'3 2.7
2015-Aug-09 18:33N 53°17' E 005°10'4 3.6
2015-Aug-09 17:33N 53°20' E 005°06'4 3.8
2015-Aug-09 16:33N 53°23' E 005°02'6 6.0
2015-Aug-09 15:33N 53°25' E 005°11'6 5.6
2015-Aug-09 14:33N 53°27' E 005°20'5 5.0
2015-Aug-09 13:32N 53°29' E 005°28'5 4.7
2015-Aug-09 12:33N 53°31' E 005°35'4 3.7
2015-Aug-09 11:33N 53°33' E 005°40'6 5.9
2015-Aug-09 10:32N 53°35' E 005°50'8 6.5
2015-Aug-09 09:20N 53°37' E 006°02'18 4.6
2015-Aug-09 05:28N 53°53' E 006°17'8 6.2
2015-Aug-09 04:10N 54°00' E 006°23'28 5.9
2015-Aug-08 23:21N 54°28' E 006°32'34 5.9
2015-Aug-08 17:33N 54°60' E 006°55'5 5.1
2015-Aug-08 16:33N 55°04' E 006°59'6 5.5
2015-Aug-08 15:33N 55°10' E 007°01'7 6.6
2015-Aug-08 14:33N 55°16' E 007°01'5 5.5
2015-Aug-08 13:33N 55°22' E 006°60'  
2015-Aug-05 13:33N 58°09' E 006°28'6 5.5
2015-Aug-05 12:32N 58°14' E 006°21'6 5.8
2015-Aug-05 11:32N 58°18' E 006°14'5 4.9
2015-Aug-05 10:32N 58°21' E 006°07'4 3.9
2015-Aug-05 09:29N 58°23' E 005°60'4 4.2
2015-Aug-05 08:33N 58°27' E 005°59'0 0.4
2015-Aug-05 07:33N 58°27' E 006°00'0 0.0
2015-Aug-05 06:33N 58°27' E 006°00'0 0.0
2015-Aug-05 05:33N 58°27' E 006°00'0 0.0
2015-Aug-05 04:33N 58°27' E 006°00'0 0.0
2015-Aug-05 03:33N 58°27' E 006°00'0 0.0
2015-Aug-05 02:33N 58°27' E 006°00'0 0.0
2015-Aug-05 01:33N 58°27' E 006°00'0 0.0
2015-Aug-05 00:33N 58°27' E 006°00'0 0.0
2015-Aug-04 23:33N 58°27' E 006°00'0 0.0
2015-Aug-04 22:33N 58°27' E 006°00'0 0.0
2015-Aug-04 21:33N 58°27' E 006°00'0 0.0
2015-Aug-04 20:33N 58°27' E 006°00'0 0.0
2015-Aug-04 19:33N 58°27' E 006°00'0 0.0
2015-Aug-04 18:33N 58°27' E 006°00'0 0.0
2015-Aug-04 17:24N 58°27' E 006°00'0 0.0
2015-Aug-04 16:33N 58°27' E 006°00'0 0.0
2015-Aug-04 15:33N 58°27' E 006°00'0 0.0
2015-Aug-04 14:33N 58°27' E 006°00'0 0.0
2015-Aug-04 13:33N 58°27' E 006°00'0 0.0
2015-Aug-04 12:33N 58°27' E 006°00'0 0.0
2015-Aug-04 11:30N 58°27' E 006°00'0 0.0
2015-Aug-04 10:33N 58°27' E 006°00'0 0.0
2015-Aug-04 09:33N 58°27' E 006°00'0 0.0
2015-Aug-04 08:33N 58°27' E 006°00'0 0.0
2015-Aug-04 07:32N 58°27' E 006°00'0 0.0
2015-Aug-04 06:32N 58°27' E 006°00'0 0.0
2015-Aug-04 05:32N 58°27' E 006°00'0 0.0
2015-Aug-04 04:32N 58°27' E 006°00'0 0.0
2015-Aug-04 03:32N 58°27' E 006°00'0 0.0
2015-Aug-04 02:32N 58°27' E 006°00'0 0.0
2015-Aug-04 01:32N 58°27' E 006°00'0 0.0
2015-Aug-04 00:32N 58°27' E 006°00'0 0.0
2015-Aug-03 23:32N 58°27' E 006°00'0 0.0
2015-Aug-03 22:32N 58°27' E 006°00'0 0.0
2015-Aug-03 21:32N 58°27' E 006°00'0 0.0
2015-Aug-03 20:32N 58°27' E 006°00'0 0.0
2015-Aug-03 19:32N 58°27' E 006°00'0 0.0
2015-Aug-03 18:32N 58°27' E 006°00'0 0.0
2015-Aug-03 17:32N 58°27' E 006°00'0 0.0
2015-Aug-03 16:32N 58°27' E 006°00'0 0.0
2015-Aug-03 15:32N 58°27' E 006°00'0 0.0
2015-Aug-03 14:32N 58°27' E 006°00'0 0.0
2015-Aug-03 13:32N 58°27' E 006°00'0 0.0
2015-Aug-03 12:32N 58°27' E 006°00'0 0.0
2015-Aug-03 11:32N 58°27' E 006°00'0 0.0
2015-Aug-03 10:32N 58°27' E 006°00'0 0.0
2015-Aug-03 09:32N 58°27' E 006°00'0 0.0
2015-Aug-03 08:32N 58°27' E 006°00'0 0.0
2015-Aug-03 07:32N 58°27' E 006°00'0 0.0
2015-Aug-03 06:32N 58°27' E 006°00'0 0.0
2015-Aug-03 05:32N 58°27' E 006°00'0 0.0
2015-Aug-03 04:32N 58°27' E 006°00'0 0.0
2015-Aug-03 03:29N 58°27' E 006°00'0 0.0
2015-Aug-03 02:32N 58°27' E 006°00'0 0.0
2015-Aug-03 01:32N 58°27' E 006°00'0 0.0
2015-Aug-03 00:32N 58°27' E 006°00'0 0.0
2015-Aug-02 23:32N 58°27' E 006°00'0 0.0
2015-Aug-02 22:32N 58°27' E 006°00'0 0.0
2015-Aug-02 21:29N 58°27' E 006°00'0 0.0
2015-Aug-02 20:32N 58°27' E 006°00'0 0.0
2015-Aug-02 19:32N 58°27' E 006°00'0 0.0
2015-Aug-02 18:32N 58°27' E 006°00'0 0.0
2015-Aug-02 17:32N 58°27' E 006°00'0 0.0
2015-Aug-02 16:32N 58°27' E 006°00'0 0.0
2015-Aug-02 15:33N 58°27' E 006°00'  
Track history (hours):
 
Tides and Currents Weather Stations Pressure Air Temp Water Temp Dewpoint Dewpoint Depression Visibility Wind Speed Wind Dir Waves Ship Positions

Wayana

Last reported at 2015-Aug-12 15:32 UTC. Time now 2015-Aug-28 07:32 UTC.
Position N 52°55' E 005°03'.
Warning: this ship's position is 15 days out of date.

Length 14 m.

Type: Sailing vessel. MMSI: 244020670.

Date/timePositionNaut miles runAvg speedWind from/ knotsBaromVisibWave heightAir tempDewpointWater temp
2015-Aug-12 15:32N 52°55' E 005°03'0 0.0
2015-Aug-12 14:32N 52°55' E 005°03'0 0.0
2015-Aug-12 13:32N 52°55' E 005°03'0 0.0
2015-Aug-12 12:32N 52°55' E 005°03'0 0.0
2015-Aug-11 19:33N 52°55' E 005°03'0 0.0
2015-Aug-11 15:29N 52°55' E 005°03'0 0.0
2015-Aug-11 14:32N 52°55' E 005°03'0 0.0
2015-Aug-11 13:32N 52°55' E 005°03'0 0.0
2015-Aug-11 12:29N 52°55' E 005°03'0 0.0
2015-Aug-11 11:32N 52°55' E 005°03'0 0.0
2015-Aug-11 10:32N 52°55' E 005°03'0 0.0
2015-Aug-11 09:32N 52°55' E 005°03'0 0.0
2015-Aug-11 08:32N 52°55' E 005°03'0 0.0
2015-Aug-11 07:32N 52°55' E 005°03'0 0.0
2015-Aug-11 06:32N 52°55' E 005°03'0 0.0
2015-Aug-11 05:32N 52°55' E 005°03'0 0.0
2015-Aug-11 04:32N 52°55' E 005°03'0 0.0
2015-Aug-11 03:32N 52°55' E 005°03'0 0.0
2015-Aug-11 02:32N 52°55' E 005°03'0 0.0
2015-Aug-11 01:32N 52°55' E 005°03'0 0.0
2015-Aug-11 00:29N 52°55' E 005°03'0 0.0
2015-Aug-10 23:32N 52°55' E 005°03'0 0.0
2015-Aug-10 22:32N 52°55' E 005°03'0 0.0
2015-Aug-10 21:29N 52°55' E 005°03'0 0.0
2015-Aug-10 20:32N 52°55' E 005°03'0 0.0
2015-Aug-10 19:29N 52°55' E 005°03'0 0.0
2015-Aug-10 18:32N 52°55' E 005°03'0 0.0
2015-Aug-10 17:32N 52°55' E 005°03'1 0.8
2015-Aug-10 16:33N 52°56' E 005°02'5 4.8
2015-Aug-10 15:33N 53°00' E 005°06'6 4.3
2015-Aug-10 14:17N 53°05' E 005°10'3 3.5
2015-Aug-10 13:26N 53°08' E 005°10'5 5.7
2015-Aug-10 12:33N 53°13' E 005°09'1 1.0
2015-Aug-10 11:33N 53°14' E 005°09'0 0.0
2015-Aug-10 10:33N 53°14' E 005°09'0 0.0
2015-Aug-10 09:33N 53°14' E 005°09'0 0.0
2015-Aug-10 08:30N 53°14' E 005°09'0 0.0
2015-Aug-10 07:33N 53°14' E 005°09'0 0.0
2015-Aug-10 06:27N 53°14' E 005°09'0 0.0
2015-Aug-10 05:33N 53°14' E 005°09'0 0.0
2015-Aug-10 04:33N 53°14' E 005°09'0 0.0
2015-Aug-10 03:33N 53°14' E 005°09'0 0.0
2015-Aug-10 02:33N 53°14' E 005°09'0 0.0
2015-Aug-10 01:33N 53°14' E 005°09'0 0.0
2015-Aug-10 00:33N 53°14' E 005°09'0 0.0
2015-Aug-09 23:33N 53°14' E 005°09'0 0.0
2015-Aug-09 22:33N 53°14' E 005°09'0 0.0
2015-Aug-09 21:33N 53°14' E 005°09'0 0.0
2015-Aug-09 20:33N 53°14' E 005°09'0 0.0
2015-Aug-09 19:33N 53°14' E 005°09'3 2.7
2015-Aug-09 18:33N 53°17' E 005°10'4 3.6
2015-Aug-09 17:33N 53°20' E 005°06'4 3.8
2015-Aug-09 16:33N 53°23' E 005°02'6 6.0
2015-Aug-09 15:33N 53°25' E 005°11'6 5.6
2015-Aug-09 14:33N 53°27' E 005°20'5 5.0
2015-Aug-09 13:32N 53°29' E 005°28'5 4.7
2015-Aug-09 12:33N 53°31' E 005°35'4 3.7
2015-Aug-09 11:33N 53°33' E 005°40'6 5.9
2015-Aug-09 10:32N 53°35' E 005°50'8 6.5
2015-Aug-09 09:20N 53°37' E 006°02'18 4.6
2015-Aug-09 05:28N 53°53' E 006°17'8 6.2
2015-Aug-09 04:10N 54°00' E 006°23'28 5.9
2015-Aug-08 23:21N 54°28' E 006°32'34 5.9
2015-Aug-08 17:33N 54°60' E 006°55'5 5.1
2015-Aug-08 16:33N 55°04' E 006°59'6 5.5
2015-Aug-08 15:33N 55°10' E 007°01'7 6.6
2015-Aug-08 14:33N 55°16' E 007°01'5 5.5
2015-Aug-08 13:33N 55°22' E 006°60'  
2015-Aug-05 13:33N 58°09' E 006°28'6 5.5
2015-Aug-05 12:32N 58°14' E 006°21'6 5.8
2015-Aug-05 11:32N 58°18' E 006°14'5 4.9
2015-Aug-05 10:32N 58°21' E 006°07'4 3.9
2015-Aug-05 09:29N 58°23' E 005°60'4 4.2
2015-Aug-05 08:33N 58°27' E 005°59'0 0.4
2015-Aug-05 07:33N 58°27' E 006°00'0 0.0
2015-Aug-05 06:33N 58°27' E 006°00'0 0.0
2015-Aug-05 05:33N 58°27' E 006°00'0 0.0
2015-Aug-05 04:33N 58°27' E 006°00'0 0.0
2015-Aug-05 03:33N 58°27' E 006°00'0 0.0
2015-Aug-05 02:33N 58°27' E 006°00'0 0.0
2015-Aug-05 01:33N 58°27' E 006°00'0 0.0
2015-Aug-05 00:33N 58°27' E 006°00'0 0.0
2015-Aug-04 23:33N 58°27' E 006°00'0 0.0
2015-Aug-04 22:33N 58°27' E 006°00'0 0.0
2015-Aug-04 21:33N 58°27' E 006°00'0 0.0
2015-Aug-04 20:33N 58°27' E 006°00'0 0.0
2015-Aug-04 19:33N 58°27' E 006°00'0 0.0
2015-Aug-04 18:33N 58°27' E 006°00'0 0.0
2015-Aug-04 17:24N 58°27' E 006°00'0 0.0
2015-Aug-04 16:33N 58°27' E 006°00'0 0.0
2015-Aug-04 15:33N 58°27' E 006°00'0 0.0
2015-Aug-04 14:33N 58°27' E 006°00'0 0.0
2015-Aug-04 13:33N 58°27' E 006°00'0 0.0
2015-Aug-04 12:33N 58°27' E 006°00'0 0.0
2015-Aug-04 11:30N 58°27' E 006°00'0 0.0
2015-Aug-04 10:33N 58°27' E 006°00'0 0.0
2015-Aug-04 09:33N 58°27' E 006°00'0 0.0
2015-Aug-04 08:33N 58°27' E 006°00'0 0.0
2015-Aug-04 07:32N 58°27' E 006°00'0 0.0
2015-Aug-04 06:32N 58°27' E 006°00'0 0.0
2015-Aug-04 05:32N 58°27' E 006°00'0 0.0
2015-Aug-04 04:32N 58°27' E 006°00'0 0.0
2015-Aug-04 03:32N 58°27' E 006°00'0 0.0
2015-Aug-04 02:32N 58°27' E 006°00'0 0.0
2015-Aug-04 01:32N 58°27' E 006°00'0 0.0
2015-Aug-04 00:32N 58°27' E 006°00'0 0.0
2015-Aug-03 23:32N 58°27' E 006°00'0 0.0
2015-Aug-03 22:32N 58°27' E 006°00'0 0.0
2015-Aug-03 21:32N 58°27' E 006°00'0 0.0
2015-Aug-03 20:32N 58°27' E 006°00'0 0.0
2015-Aug-03 19:32N 58°27' E 006°00'0 0.0
2015-Aug-03 18:32N 58°27' E 006°00'0 0.0
2015-Aug-03 17:32N 58°27' E 006°00'0 0.0
2015-Aug-03 16:32N 58°27' E 006°00'0 0.0
2015-Aug-03 15:32N 58°27' E 006°00'0 0.0
2015-Aug-03 14:32N 58°27' E 006°00'0 0.0
2015-Aug-03 13:32N 58°27' E 006°00'0 0.0
2015-Aug-03 12:32N 58°27' E 006°00'0 0.0
2015-Aug-03 11:32N 58°27' E 006°00'0 0.0
2015-Aug-03 10:32N 58°27' E 006°00'0 0.0
2015-Aug-03 09:32N 58°27' E 006°00'0 0.0
2015-Aug-03 08:32N 58°27' E 006°00'0 0.0
2015-Aug-03 07:32N 58°27' E 006°00'0 0.0
2015-Aug-03 06:32N 58°27' E 006°00'0 0.0
2015-Aug-03 05:32N 58°27' E 006°00'0 0.0
2015-Aug-03 04:32N 58°27' E 006°00'0 0.0
2015-Aug-03 03:29N 58°27' E 006°00'0 0.0
2015-Aug-03 02:32N 58°27' E 006°00'0 0.0
2015-Aug-03 01:32N 58°27' E 006°00'0 0.0
2015-Aug-03 00:32N 58°27' E 006°00'0 0.0
2015-Aug-02 23:32N 58°27' E 006°00'0 0.0
2015-Aug-02 22:32N 58°27' E 006°00'0 0.0
2015-Aug-02 21:29N 58°27' E 006°00'0 0.0
2015-Aug-02 20:32N 58°27' E 006°00'0 0.0
2015-Aug-02 19:32N 58°27' E 006°00'0 0.0
2015-Aug-02 18:32N 58°27' E 006°00'0 0.0
2015-Aug-02 17:32N 58°27' E 006°00'0 0.0
2015-Aug-02 16:32N 58°27' E 006°00'0 0.0
2015-Aug-02 15:33N 58°27' E 006°00'  

Dump ship's entire track history